sensor_id;sensor_type;location;lat;lon;timestamp;P1;durP1;ratioP1;P2;durP2;ratioP2
51866;SDS011;52862;52.504;13.480;2022-07-01T00:00:12;18.33;;;10.18;;
51866;SDS011;52862;52.504;13.480;2022-07-01T00:02:39;16.95;;;10.18;;
51866;SDS011;52862;52.504;13.480;2022-07-01T00:05:07;15.48;;;10.60;;
51866;SDS011;52862;52.504;13.480;2022-07-01T00:07:33;18.02;;;10.27;;
51866;SDS011;52862;52.504;13.480;2022-07-01T00:10:02;17.08;;;11.95;;
51866;SDS011;52862;52.504;13.480;2022-07-01T00:12:29;17.13;;;11.20;;
51866;SDS011;52862;52.504;13.480;2022-07-01T00:14:56;19.25;;;10.98;;
51866;SDS011;52862;52.504;13.480;2022-07-01T00:17:23;21.48;;;10.95;;
51866;SDS011;52862;52.504;13.480;2022-07-01T00:19:50;14.52;;;11.45;;
51866;SDS011;52862;52.504;13.480;2022-07-01T00:22:16;25.80;;;12.95;;
51866;SDS011;52862;52.504;13.480;2022-07-01T00:24:43;15.18;;;10.07;;
51866;SDS011;52862;52.504;13.480;2022-07-01T00:27:11;15.75;;;11.60;;
51866;SDS011;52862;52.504;13.480;2022-07-01T00:29:39;17.05;;;11.52;;
51866;SDS011;52862;52.504;13.480;2022-07-01T00:32:07;14.35;;;10.68;;
51866;SDS011;52862;52.504;13.480;2022-07-01T00:34:34;19.85;;;12.20;;
51866;SDS011;52862;52.504;13.480;2022-07-01T00:37:01;19.92;;;12.85;;
51866;SDS011;52862;52.504;13.480;2022-07-01T00:39:28;20.38;;;12.10;;
51866;SDS011;52862;52.504;13.480;2022-07-01T00:41:57;17.35;;;12.00;;
51866;SDS011;52862;52.504;13.480;2022-07-01T00:44:26;20.85;;;12.68;;
51866;SDS011;52862;52.504;13.480;2022-07-01T00:46:53;19.30;;;12.45;;
51866;SDS011;52862;52.504;13.480;2022-07-01T00:49:20;16.02;;;11.82;;
51866;SDS011;52862;52.504;13.480;2022-07-01T00:51:47;19.02;;;13.05;;
51866;SDS011;52862;52.504;13.480;2022-07-01T00:54:15;20.90;;;13.30;;
51866;SDS011;52862;52.504;13.480;2022-07-01T00:56:41;22.23;;;13.05;;
51866;SDS011;52862;52.504;13.480;2022-07-01T00:59:08;19.50;;;13.02;;
51866;SDS011;52862;52.504;13.480;2022-07-01T01:01:35;19.17;;;13.10;;
51866;SDS011;52862;52.504;13.480;2022-07-01T01:04:02;19.85;;;13.48;;
51866;SDS011;52862;52.504;13.480;2022-07-01T01:06:30;21.70;;;13.70;;
51866;SDS011;52862;52.504;13.480;2022-07-01T01:08:56;19.77;;;13.50;;
51866;SDS011;52862;52.504;13.480;2022-07-01T01:11:23;24.27;;;14.77;;
51866;SDS011;52862;52.504;13.480;2022-07-01T01:13:50;28.75;;;14.38;;
51866;SDS011;52862;52.504;13.480;2022-07-01T01:16:18;26.63;;;14.20;;
51866;SDS011;52862;52.504;13.480;2022-07-01T01:18:45;22.52;;;12.82;;
51866;SDS011;52862;52.504;13.480;2022-07-01T01:21:13;28.48;;;14.15;;
51866;SDS011;52862;52.504;13.480;2022-07-01T01:23:40;24.10;;;14.85;;
51866;SDS011;52862;52.504;13.480;2022-07-01T01:26:14;19.50;;;13.95;;
51866;SDS011;52862;52.504;13.480;2022-07-01T01:28:42;27.08;;;15.02;;
51866;SDS011;52862;52.504;13.480;2022-07-01T01:31:09;25.58;;;14.95;;
51866;SDS011;52862;52.504;13.480;2022-07-01T01:33:37;19.88;;;14.73;;
51866;SDS011;52862;52.504;13.480;2022-07-01T01:36:04;24.60;;;14.77;;
51866;SDS011;52862;52.504;13.480;2022-07-01T01:38:32;23.08;;;15.25;;
51866;SDS011;52862;52.504;13.480;2022-07-01T01:41:00;24.05;;;15.40;;
51866;SDS011;52862;52.504;13.480;2022-07-01T01:43:27;25.95;;;15.02;;
51866;SDS011;52862;52.504;13.480;2022-07-01T01:45:54;24.35;;;14.35;;
51866;SDS011;52862;52.504;13.480;2022-07-01T01:48:20;22.08;;;14.85;;
51866;SDS011;52862;52.504;13.480;2022-07-01T01:50:47;23.33;;;15.82;;
51866;SDS011;52862;52.504;13.480;2022-07-01T01:53:14;26.80;;;18.20;;
51866;SDS011;52862;52.504;13.480;2022-07-01T01:55:41;29.30;;;16.30;;
51866;SDS011;52862;52.504;13.480;2022-07-01T01:58:08;27.40;;;17.38;;
51866;SDS011;52862;52.504;13.480;2022-07-01T02:00:35;32.55;;;16.83;;
51866;SDS011;52862;52.504;13.480;2022-07-01T02:03:03;25.90;;;17.77;;
51866;SDS011;52862;52.504;13.480;2022-07-01T02:05:30;24.15;;;16.63;;
51866;SDS011;52862;52.504;13.480;2022-07-01T02:07:57;27.88;;;17.63;;
51866;SDS011;52862;52.504;13.480;2022-07-01T02:10:23;27.80;;;17.88;;
51866;SDS011;52862;52.504;13.480;2022-07-01T02:12:51;33.55;;;17.73;;
51866;SDS011;52862;52.504;13.480;2022-07-01T02:15:18;32.22;;;17.13;;
51866;SDS011;52862;52.504;13.480;2022-07-01T02:17:45;26.05;;;18.02;;
51866;SDS011;52862;52.504;13.480;2022-07-01T02:20:11;32.83;;;18.35;;
51866;SDS011;52862;52.504;13.480;2022-07-01T02:22:40;30.98;;;17.45;;
51866;SDS011;52862;52.504;13.480;2022-07-01T02:25:07;34.42;;;17.27;;
51866;SDS011;52862;52.504;13.480;2022-07-01T02:27:35;30.08;;;18.63;;
51866;SDS011;52862;52.504;13.480;2022-07-01T02:30:03;28.00;;;18.48;;
51866;SDS011;52862;52.504;13.480;2022-07-01T02:32:31;31.00;;;18.63;;
51866;SDS011;52862;52.504;13.480;2022-07-01T02:34:58;29.27;;;19.25;;
51866;SDS011;52862;52.504;13.480;2022-07-01T02:37:25;37.20;;;19.60;;
51866;SDS011;52862;52.504;13.480;2022-07-01T02:39:52;36.13;;;19.30;;
51866;SDS011;52862;52.504;13.480;2022-07-01T02:42:19;27.67;;;19.10;;
51866;SDS011;52862;52.504;13.480;2022-07-01T02:44:52;28.33;;;18.50;;
51866;SDS011;52862;52.504;13.480;2022-07-01T02:47:20;42.50;;;21.40;;
51866;SDS011;52862;52.504;13.480;2022-07-01T02:49:47;30.10;;;19.23;;
51866;SDS011;52862;52.504;13.480;2022-07-01T02:52:14;28.73;;;18.20;;
51866;SDS011;52862;52.504;13.480;2022-07-01T02:54:42;28.58;;;17.77;;
51866;SDS011;52862;52.504;13.480;2022-07-01T02:57:09;40.05;;;20.02;;
51866;SDS011;52862;52.504;13.480;2022-07-01T02:59:35;34.25;;;20.25;;
51866;SDS011;52862;52.504;13.480;2022-07-01T03:02:02;39.95;;;21.30;;
51866;SDS011;52862;52.504;13.480;2022-07-01T03:04:31;41.15;;;20.35;;
51866;SDS011;52862;52.504;13.480;2022-07-01T03:06:58;32.90;;;20.83;;
51866;SDS011;52862;52.504;13.480;2022-07-01T03:09:25;32.00;;;19.45;;
51866;SDS011;52862;52.504;13.480;2022-07-01T03:11:52;40.28;;;21.80;;
51866;SDS011;52862;52.504;13.480;2022-07-01T03:14:18;37.88;;;20.48;;
51866;SDS011;52862;52.504;13.480;2022-07-01T03:16:45;31.63;;;21.20;;
51866;SDS011;52862;52.504;13.480;2022-07-01T03:19:13;39.63;;;20.85;;
51866;SDS011;52862;52.504;13.480;2022-07-01T03:21:40;32.85;;;20.85;;
51866;SDS011;52862;52.504;13.480;2022-07-01T03:24:07;34.95;;;20.98;;
51866;SDS011;52862;52.504;13.480;2022-07-01T03:26:33;32.38;;;21.25;;
51866;SDS011;52862;52.504;13.480;2022-07-01T03:29:04;38.42;;;22.95;;
51866;SDS011;52862;52.504;13.480;2022-07-01T03:31:31;32.25;;;21.73;;
51866;SDS011;52862;52.504;13.480;2022-07-01T03:33:58;29.85;;;21.40;;
51866;SDS011;52862;52.504;13.480;2022-07-01T03:36:24;34.63;;;21.90;;
51866;SDS011;52862;52.504;13.480;2022-07-01T03:38:52;37.20;;;20.67;;
51866;SDS011;52862;52.504;13.480;2022-07-01T03:41:19;31.80;;;19.17;;
51866;SDS011;52862;52.504;13.480;2022-07-01T03:43:45;37.55;;;20.30;;
51866;SDS011;52862;52.504;13.480;2022-07-01T03:46:12;37.55;;;21.08;;
51866;SDS011;52862;52.504;13.480;2022-07-01T03:48:39;31.50;;;22.00;;
51866;SDS011;52862;52.504;13.480;2022-07-01T03:51:07;33.75;;;21.13;;
51866;SDS011;52862;52.504;13.480;2022-07-01T03:53:34;33.35;;;21.17;;
51866;SDS011;52862;52.504;13.480;2022-07-01T03:56:20;30.80;;;20.38;;
51866;SDS011;52862;52.504;13.480;2022-07-01T03:58:47;36.92;;;22.08;;
51866;SDS011;52862;52.504;13.480;2022-07-01T04:01:14;34.13;;;20.40;;
51866;SDS011;52862;52.504;13.480;2022-07-01T04:03:40;41.00;;;21.58;;
51866;SDS011;52862;52.504;13.480;2022-07-01T04:06:07;34.47;;;20.92;;
51866;SDS011;52862;52.504;13.480;2022-07-01T04:08:34;29.80;;;20.80;;
51866;SDS011;52862;52.504;13.480;2022-07-01T04:11:01;38.40;;;20.75;;
51866;SDS011;52862;52.504;13.480;2022-07-01T04:13:28;36.58;;;21.08;;
51866;SDS011;52862;52.504;13.480;2022-07-01T04:15:57;41.50;;;20.70;;
51866;SDS011;52862;52.504;13.480;2022-07-01T04:18:25;30.63;;;19.27;;
51866;SDS011;52862;52.504;13.480;2022-07-01T04:20:53;30.90;;;18.67;;
51866;SDS011;52862;52.504;13.480;2022-07-01T04:23:37;34.08;;;20.33;;
51866;SDS011;52862;52.504;13.480;2022-07-01T04:26:04;32.15;;;20.02;;
51866;SDS011;52862;52.504;13.480;2022-07-01T04:28:52;31.67;;;20.80;;
51866;SDS011;52862;52.504;13.480;2022-07-01T04:31:20;30.67;;;21.65;;
51866;SDS011;52862;52.504;13.480;2022-07-01T04:33:47;35.60;;;20.80;;
51866;SDS011;52862;52.504;13.480;2022-07-01T04:36:15;30.88;;;18.63;;
51866;SDS011;52862;52.504;13.480;2022-07-01T04:38:42;33.25;;;20.67;;
51866;SDS011;52862;52.504;13.480;2022-07-01T04:41:08;30.17;;;20.58;;
51866;SDS011;52862;52.504;13.480;2022-07-01T04:43:54;31.33;;;19.55;;
51866;SDS011;52862;52.504;13.480;2022-07-01T04:46:21;30.27;;;21.13;;
51866;SDS011;52862;52.504;13.480;2022-07-01T04:48:47;32.03;;;20.00;;
51866;SDS011;52862;52.504;13.480;2022-07-01T04:51:14;45.42;;;20.48;;
51866;SDS011;52862;52.504;13.480;2022-07-01T04:53:41;35.63;;;20.83;;
51866;SDS011;52862;52.504;13.480;2022-07-01T04:56:07;32.03;;;19.95;;
51866;SDS011;52862;52.504;13.480;2022-07-01T04:58:34;38.65;;;20.42;;
51866;SDS011;52862;52.504;13.480;2022-07-01T05:01:02;39.70;;;20.48;;
51866;SDS011;52862;52.504;13.480;2022-07-01T05:03:28;25.95;;;18.08;;
51866;SDS011;52862;52.504;13.480;2022-07-01T05:05:55;34.20;;;18.98;;
51866;SDS011;52862;52.504;13.480;2022-07-01T05:08:22;35.80;;;18.42;;
51866;SDS011;52862;52.504;13.480;2022-07-01T05:10:48;35.08;;;19.60;;
51866;SDS011;52862;52.504;13.480;2022-07-01T05:13:15;29.80;;;20.10;;
51866;SDS011;52862;52.504;13.480;2022-07-01T05:15:42;27.42;;;19.17;;
51866;SDS011;52862;52.504;13.480;2022-07-01T05:18:09;33.58;;;19.88;;
51866;SDS011;52862;52.504;13.480;2022-07-01T05:20:54;29.58;;;19.90;;
51866;SDS011;52862;52.504;13.480;2022-07-01T05:23:39;32.25;;;19.17;;
51866;SDS011;52862;52.504;13.480;2022-07-01T05:26:06;32.55;;;18.92;;
51866;SDS011;52862;52.504;13.480;2022-07-01T05:28:33;30.30;;;18.67;;
51866;SDS011;52862;52.504;13.480;2022-07-01T05:31:00;32.42;;;18.45;;
51866;SDS011;52862;52.504;13.480;2022-07-01T05:33:27;31.02;;;18.55;;
51866;SDS011;52862;52.504;13.480;2022-07-01T05:35:54;25.35;;;18.08;;
51866;SDS011;52862;52.504;13.480;2022-07-01T05:38:21;30.27;;;17.13;;
51866;SDS011;52862;52.504;13.480;2022-07-01T05:40:47;34.58;;;17.13;;
51866;SDS011;52862;52.504;13.480;2022-07-01T05:43:14;25.88;;;16.70;;
51866;SDS011;52862;52.504;13.480;2022-07-01T05:45:41;30.25;;;17.83;;
51866;SDS011;52862;52.504;13.480;2022-07-01T05:48:08;34.05;;;18.88;;
51866;SDS011;52862;52.504;13.480;2022-07-01T05:50:35;29.40;;;15.77;;
51866;SDS011;52862;52.504;13.480;2022-07-01T05:53:02;33.97;;;17.40;;
51866;SDS011;52862;52.504;13.480;2022-07-01T05:55:29;30.75;;;18.02;;
51866;SDS011;52862;52.504;13.480;2022-07-01T05:57:55;38.67;;;16.88;;
51866;SDS011;52862;52.504;13.480;2022-07-01T06:00:23;32.75;;;17.73;;
51866;SDS011;52862;52.504;13.480;2022-07-01T06:02:49;29.35;;;17.90;;
51866;SDS011;52862;52.504;13.480;2022-07-01T06:05:17;25.25;;;17.25;;
51866;SDS011;52862;52.504;13.480;2022-07-01T06:07:45;42.85;;;19.10;;
51866;SDS011;52862;52.504;13.480;2022-07-01T06:10:12;28.73;;;17.30;;
51866;SDS011;52862;52.504;13.480;2022-07-01T06:12:39;32.60;;;18.08;;
51866;SDS011;52862;52.504;13.480;2022-07-01T06:15:07;35.55;;;17.55;;
51866;SDS011;52862;52.504;13.480;2022-07-01T06:17:35;32.22;;;18.17;;
51866;SDS011;52862;52.504;13.480;2022-07-01T06:20:02;34.50;;;17.42;;
51866;SDS011;52862;52.504;13.480;2022-07-01T06:22:29;33.10;;;17.05;;
51866;SDS011;52862;52.504;13.480;2022-07-01T06:24:57;34.47;;;17.20;;
51866;SDS011;52862;52.504;13.480;2022-07-01T06:27:23;31.85;;;17.45;;
51866;SDS011;52862;52.504;13.480;2022-07-01T06:29:50;29.25;;;16.33;;
51866;SDS011;52862;52.504;13.480;2022-07-01T06:32:17;35.85;;;17.63;;
51866;SDS011;52862;52.504;13.480;2022-07-01T06:34:44;42.83;;;18.33;;
51866;SDS011;52862;52.504;13.480;2022-07-01T06:37:11;26.85;;;17.35;;
51866;SDS011;52862;52.504;13.480;2022-07-01T06:39:38;33.50;;;18.35;;
51866;SDS011;52862;52.504;13.480;2022-07-01T06:42:06;31.98;;;17.77;;
51866;SDS011;52862;52.504;13.480;2022-07-01T06:44:33;27.90;;;17.05;;
51866;SDS011;52862;52.504;13.480;2022-07-01T06:47:00;28.65;;;17.73;;
51866;SDS011;52862;52.504;13.480;2022-07-01T06:49:26;38.65;;;18.70;;
51866;SDS011;52862;52.504;13.480;2022-07-01T06:51:53;32.88;;;18.48;;
51866;SDS011;52862;52.504;13.480;2022-07-01T06:54:20;34.70;;;18.02;;
51866;SDS011;52862;52.504;13.480;2022-07-01T06:56:47;30.95;;;18.80;;
51866;SDS011;52862;52.504;13.480;2022-07-01T06:59:15;30.95;;;18.60;;
51866;SDS011;52862;52.504;13.480;2022-07-01T07:01:41;34.80;;;19.23;;
51866;SDS011;52862;52.504;13.480;2022-07-01T07:04:08;34.28;;;18.92;;
51866;SDS011;52862;52.504;13.480;2022-07-01T07:06:35;41.55;;;21.02;;
51866;SDS011;52862;52.504;13.480;2022-07-01T07:09:02;43.00;;;20.50;;
51866;SDS011;52862;52.504;13.480;2022-07-01T07:11:29;39.40;;;19.77;;
51866;SDS011;52862;52.504;13.480;2022-07-01T07:13:56;46.30;;;20.00;;
51866;SDS011;52862;52.504;13.480;2022-07-01T07:16:24;35.40;;;20.38;;
51866;SDS011;52862;52.504;13.480;2022-07-01T07:18:52;32.30;;;19.90;;
51866;SDS011;52862;52.504;13.480;2022-07-01T07:21:19;44.22;;;20.20;;
51866;SDS011;52862;52.504;13.480;2022-07-01T07:23:46;37.63;;;20.17;;
51866;SDS011;52862;52.504;13.480;2022-07-01T07:26:13;28.10;;;19.02;;
51866;SDS011;52862;52.504;13.480;2022-07-01T07:28:39;33.35;;;18.35;;
51866;SDS011;52862;52.504;13.480;2022-07-01T07:31:09;34.40;;;17.67;;
51866;SDS011;52862;52.504;13.480;2022-07-01T07:33:37;37.45;;;17.48;;
51866;SDS011;52862;52.504;13.480;2022-07-01T07:36:04;63.92;;;18.40;;
51866;SDS011;52862;52.504;13.480;2022-07-01T07:38:31;27.50;;;16.52;;
51866;SDS011;52862;52.504;13.480;2022-07-01T07:40:58;33.80;;;17.98;;
51866;SDS011;52862;52.504;13.480;2022-07-01T07:43:26;32.25;;;16.65;;
51866;SDS011;52862;52.504;13.480;2022-07-01T07:45:53;34.67;;;16.70;;
51866;SDS011;52862;52.504;13.480;2022-07-01T07:48:20;36.83;;;17.52;;
51866;SDS011;52862;52.504;13.480;2022-07-01T07:50:47;27.52;;;15.40;;
51866;SDS011;52862;52.504;13.480;2022-07-01T07:53:14;24.42;;;16.38;;
51866;SDS011;52862;52.504;13.480;2022-07-01T07:55:41;21.95;;;12.82;;
51866;SDS011;52862;52.504;13.480;2022-07-01T07:58:08;26.10;;;12.48;;
51866;SDS011;52862;52.504;13.480;2022-07-01T08:00:35;22.30;;;13.52;;
51866;SDS011;52862;52.504;13.480;2022-07-01T08:03:05;23.67;;;13.50;;
51866;SDS011;52862;52.504;13.480;2022-07-01T08:05:33;23.15;;;13.57;;
51866;SDS011;52862;52.504;13.480;2022-07-01T08:08:00;24.00;;;14.63;;
51866;SDS011;52862;52.504;13.480;2022-07-01T08:10:27;18.05;;;12.23;;
51866;SDS011;52862;52.504;13.480;2022-07-01T08:12:53;22.40;;;12.85;;
51866;SDS011;52862;52.504;13.480;2022-07-01T08:15:22;34.80;;;12.48;;
51866;SDS011;52862;52.504;13.480;2022-07-01T08:17:49;21.65;;;12.55;;
51866;SDS011;52862;52.504;13.480;2022-07-01T08:20:16;24.48;;;13.63;;
51866;SDS011;52862;52.504;13.480;2022-07-01T08:23:11;23.77;;;13.02;;
51866;SDS011;52862;52.504;13.480;2022-07-01T08:25:38;27.88;;;11.77;;
51866;SDS011;52862;52.504;13.480;2022-07-01T08:28:05;20.75;;;13.10;;
51866;SDS011;52862;52.504;13.480;2022-07-01T08:30:32;30.30;;;13.30;;
51866;SDS011;52862;52.504;13.480;2022-07-01T08:32:59;19.88;;;12.32;;
51866;SDS011;52862;52.504;13.480;2022-07-01T08:35:26;23.75;;;12.05;;
51866;SDS011;52862;52.504;13.480;2022-07-01T08:37:53;20.25;;;11.35;;
51866;SDS011;52862;52.504;13.480;2022-07-01T08:40:24;21.92;;;10.88;;
51866;SDS011;52862;52.504;13.480;2022-07-01T08:42:54;31.95;;;10.80;;
51866;SDS011;52862;52.504;13.480;2022-07-01T08:45:23;17.35;;;9.98;;
51866;SDS011;52862;52.504;13.480;2022-07-01T08:47:52;15.82;;;9.93;;
51866;SDS011;52862;52.504;13.480;2022-07-01T08:50:23;23.63;;;9.70;;
51866;SDS011;52862;52.504;13.480;2022-07-01T08:52:51;19.20;;;10.70;;
51866;SDS011;52862;52.504;13.480;2022-07-01T08:55:18;19.15;;;9.90;;
51866;SDS011;52862;52.504;13.480;2022-07-01T08:57:46;18.38;;;9.98;;
51866;SDS011;52862;52.504;13.480;2022-07-01T09:00:13;28.15;;;10.98;;
51866;SDS011;52862;52.504;13.480;2022-07-01T09:02:55;24.88;;;10.38;;
51866;SDS011;52862;52.504;13.480;2022-07-01T09:05:23;21.55;;;10.32;;
51866;SDS011;52862;52.504;13.480;2022-07-01T09:07:55;19.05;;;10.43;;
51866;SDS011;52862;52.504;13.480;2022-07-01T09:10:24;22.95;;;10.40;;
51866;SDS011;52862;52.504;13.480;2022-07-01T09:12:52;15.05;;;10.25;;
51866;SDS011;52862;52.504;13.480;2022-07-01T09:15:20;21.42;;;10.00;;
51866;SDS011;52862;52.504;13.480;2022-07-01T09:17:50;21.52;;;11.07;;
51866;SDS011;52862;52.504;13.480;2022-07-01T09:20:22;19.52;;;11.10;;
51866;SDS011;52862;52.504;13.480;2022-07-01T09:23:00;23.50;;;11.52;;
51866;SDS011;52862;52.504;13.480;2022-07-01T09:25:28;20.83;;;10.90;;
51866;SDS011;52862;52.504;13.480;2022-07-01T09:28:04;22.95;;;11.02;;
51866;SDS011;52862;52.504;13.480;2022-07-01T09:30:32;20.85;;;11.20;;
51866;SDS011;52862;52.504;13.480;2022-07-01T09:33:06;23.50;;;10.50;;
51866;SDS011;52862;52.504;13.480;2022-07-01T09:35:34;22.48;;;10.68;;
51866;SDS011;52862;52.504;13.480;2022-07-01T09:38:01;40.47;;;4.70;;
51866;SDS011;52862;52.504;13.480;2022-07-01T09:40:51;19.08;;;3.65;;
51866;SDS011;52862;52.504;13.480;2022-07-01T09:43:20;11.18;;;2.50;;
51866;SDS011;52862;52.504;13.480;2022-07-01T09:45:49;13.52;;;3.63;;
51866;SDS011;52862;52.504;13.480;2022-07-01T09:48:21;15.60;;;3.05;;
51866;SDS011;52862;52.504;13.480;2022-07-01T09:50:49;10.02;;;2.35;;
51866;SDS011;52862;52.504;13.480;2022-07-01T09:53:17;16.80;;;2.40;;
51866;SDS011;52862;52.504;13.480;2022-07-01T09:55:44;15.10;;;2.60;;
51866;SDS011;52862;52.504;13.480;2022-07-01T09:58:11;7.55;;;2.53;;
51866;SDS011;52862;52.504;13.480;2022-07-01T10:00:39;13.27;;;2.00;;
51866;SDS011;52862;52.504;13.480;2022-07-01T10:03:06;12.45;;;1.92;;
51866;SDS011;52862;52.504;13.480;2022-07-01T10:05:36;6.45;;;1.70;;
51866;SDS011;52862;52.504;13.480;2022-07-01T10:11:26;11.48;;;1.73;;
51866;SDS011;52862;52.504;13.480;2022-07-01T10:14:19;12.35;;;1.98;;
51866;SDS011;52862;52.504;13.480;2022-07-01T10:16:48;9.10;;;2.10;;
51866;SDS011;52862;52.504;13.480;2022-07-01T10:19:26;6.32;;;1.80;;
51866;SDS011;52862;52.504;13.480;2022-07-01T10:21:54;3.08;;;1.65;;
51866;SDS011;52862;52.504;13.480;2022-07-01T10:24:24;4.57;;;1.55;;
51866;SDS011;52862;52.504;13.480;2022-07-01T10:26:52;2.63;;;1.63;;
51866;SDS011;52862;52.504;13.480;2022-07-01T10:29:30;6.30;;;1.50;;
51866;SDS011;52862;52.504;13.480;2022-07-01T10:32:02;5.15;;;1.70;;
51866;SDS011;52862;52.504;13.480;2022-07-01T10:34:34;10.10;;;2.00;;
51866;SDS011;52862;52.504;13.480;2022-07-01T10:37:03;3.45;;;1.60;;
51866;SDS011;52862;52.504;13.480;2022-07-01T10:42:27;9.15;;;2.45;;
51866;SDS011;52862;52.504;13.480;2022-07-01T10:45:05;2.90;;;1.65;;
51866;SDS011;52862;52.504;13.480;2022-07-01T10:47:34;3.17;;;2.00;;
51866;SDS011;52862;52.504;13.480;2022-07-01T10:50:06;13.10;;;2.42;;
51866;SDS011;52862;52.504;13.480;2022-07-01T10:52:34;5.93;;;1.73;;
51866;SDS011;52862;52.504;13.480;2022-07-01T10:55:02;3.10;;;1.80;;
51866;SDS011;52862;52.504;13.480;2022-07-01T10:57:37;6.82;;;1.90;;
51866;SDS011;52862;52.504;13.480;2022-07-01T11:03:11;4.05;;;1.58;;
51866;SDS011;52862;52.504;13.480;2022-07-01T11:05:40;18.90;;;1.77;;
51866;SDS011;52862;52.504;13.480;2022-07-01T11:08:07;4.78;;;1.48;;
51866;SDS011;52862;52.504;13.480;2022-07-01T11:10:38;3.20;;;1.20;;
51866;SDS011;52862;52.504;13.480;2022-07-01T11:13:05;1.73;;;0.98;;
51866;SDS011;52862;52.504;13.480;2022-07-01T11:15:32;13.80;;;1.00;;
51866;SDS011;52862;52.504;13.480;2022-07-01T11:17:59;5.97;;;0.80;;
51866;SDS011;52862;52.504;13.480;2022-07-01T11:20:29;3.42;;;1.02;;
51866;SDS011;52862;52.504;13.480;2022-07-01T11:22:58;6.88;;;0.95;;
51866;SDS011;52862;52.504;13.480;2022-07-01T11:25:27;12.00;;;1.17;;
51866;SDS011;52862;52.504;13.480;2022-07-01T11:28:05;10.55;;;1.35;;
51866;SDS011;52862;52.504;13.480;2022-07-01T11:30:32;7.55;;;2.00;;
51866;SDS011;52862;52.504;13.480;2022-07-01T11:32:59;8.85;;;1.23;;
51866;SDS011;52862;52.504;13.480;2022-07-01T11:35:26;2.10;;;1.00;;
51866;SDS011;52862;52.504;13.480;2022-07-01T11:38:15;2.10;;;0.85;;
51866;SDS011;52862;52.504;13.480;2022-07-01T11:41:02;5.88;;;1.08;;
51866;SDS011;52862;52.504;13.480;2022-07-01T11:43:32;2.00;;;0.80;;
51866;SDS011;52862;52.504;13.480;2022-07-01T11:46:00;9.82;;;2.97;;
51866;SDS011;52862;52.504;13.480;2022-07-01T11:48:30;2.08;;;0.80;;
51866;SDS011;52862;52.504;13.480;2022-07-01T11:50:59;3.03;;;0.90;;
51866;SDS011;52862;52.504;13.480;2022-07-01T11:53:27;1.27;;;0.90;;
51866;SDS011;52862;52.504;13.480;2022-07-01T11:55:54;2.58;;;0.90;;
51866;SDS011;52862;52.504;13.480;2022-07-01T11:58:21;4.50;;;0.93;;
51866;SDS011;52862;52.504;13.480;2022-07-01T12:00:48;2.13;;;1.00;;
51866;SDS011;52862;52.504;13.480;2022-07-01T12:03:28;5.18;;;0.98;;
51866;SDS011;52862;52.504;13.480;2022-07-01T12:05:56;2.60;;;1.10;;
51866;SDS011;52862;52.504;13.480;2022-07-01T12:08:24;4.72;;;1.15;;
51866;SDS011;52862;52.504;13.480;2022-07-01T12:10:52;6.28;;;1.38;;
51866;SDS011;52862;52.504;13.480;2022-07-01T12:13:22;3.22;;;1.17;;
51866;SDS011;52862;52.504;13.480;2022-07-01T12:15:49;4.47;;;1.58;;
51866;SDS011;52862;52.504;13.480;2022-07-01T12:18:17;8.35;;;1.58;;
51866;SDS011;52862;52.504;13.480;2022-07-01T12:20:47;2.80;;;1.50;;
51866;SDS011;52862;52.504;13.480;2022-07-01T12:23:16;4.00;;;2.20;;
51866;SDS011;52862;52.504;13.480;2022-07-01T12:25:47;2.95;;;1.85;;
51866;SDS011;52862;52.504;13.480;2022-07-01T12:28:28;4.97;;;2.70;;
51866;SDS011;52862;52.504;13.480;2022-07-01T12:31:04;4.25;;;2.65;;
51866;SDS011;52862;52.504;13.480;2022-07-01T12:33:33;10.35;;;2.90;;
51866;SDS011;52862;52.504;13.480;2022-07-01T12:36:02;4.82;;;2.85;;
51866;SDS011;52862;52.504;13.480;2022-07-01T12:38:30;7.97;;;3.08;;
51866;SDS011;52862;52.504;13.480;2022-07-01T12:40:57;4.60;;;2.80;;
51866;SDS011;52862;52.504;13.480;2022-07-01T12:43:25;8.45;;;3.17;;
51866;SDS011;52862;52.504;13.480;2022-07-01T12:45:55;5.38;;;3.30;;
51866;SDS011;52862;52.504;13.480;2022-07-01T12:48:23;7.20;;;3.30;;
51866;SDS011;52862;52.504;13.480;2022-07-01T12:50:54;10.60;;;3.50;;
51866;SDS011;52862;52.504;13.480;2022-07-01T12:53:22;6.13;;;3.97;;
51866;SDS011;52862;52.504;13.480;2022-07-01T12:55:50;5.53;;;3.17;;
51866;SDS011;52862;52.504;13.480;2022-07-01T12:58:21;7.82;;;3.33;;
51866;SDS011;52862;52.504;13.480;2022-07-01T13:00:50;10.52;;;3.67;;
51866;SDS011;52862;52.504;13.480;2022-07-01T13:03:18;4.30;;;2.88;;
51866;SDS011;52862;52.504;13.480;2022-07-01T13:05:47;7.22;;;3.65;;
51866;SDS011;52862;52.504;13.480;2022-07-01T13:08:14;5.30;;;3.13;;
51866;SDS011;52862;52.504;13.480;2022-07-01T13:10:41;7.95;;;3.85;;
51866;SDS011;52862;52.504;13.480;2022-07-01T13:13:10;7.82;;;3.97;;
51866;SDS011;52862;52.504;13.480;2022-07-01T13:15:38;8.88;;;3.90;;
51866;SDS011;52862;52.504;13.480;2022-07-01T13:18:05;3.85;;;2.72;;
51866;SDS011;52862;52.504;13.480;2022-07-01T13:20:33;8.73;;;4.22;;
51866;SDS011;52862;52.504;13.480;2022-07-01T13:23:00;6.88;;;3.60;;
51866;SDS011;52862;52.504;13.480;2022-07-01T13:25:27;11.77;;;3.95;;
51866;SDS011;52862;52.504;13.480;2022-07-01T13:27:54;9.88;;;4.50;;
51866;SDS011;52862;52.504;13.480;2022-07-01T13:30:20;9.20;;;3.80;;
51866;SDS011;52862;52.504;13.480;2022-07-01T13:32:48;5.75;;;3.88;;
51866;SDS011;52862;52.504;13.480;2022-07-01T13:35:19;11.60;;;3.63;;
51866;SDS011;52862;52.504;13.480;2022-07-01T13:37:47;5.85;;;3.75;;
51866;SDS011;52862;52.504;13.480;2022-07-01T13:40:14;11.68;;;4.13;;
51866;SDS011;52862;52.504;13.480;2022-07-01T13:42:41;13.10;;;3.95;;
51866;SDS011;52862;52.504;13.480;2022-07-01T13:45:08;6.63;;;3.53;;
51866;SDS011;52862;52.504;13.480;2022-07-01T13:47:35;9.05;;;3.63;;
51866;SDS011;52862;52.504;13.480;2022-07-01T13:50:03;6.13;;;3.30;;
51866;SDS011;52862;52.504;13.480;2022-07-01T13:52:31;6.45;;;3.70;;
51866;SDS011;52862;52.504;13.480;2022-07-01T13:54:58;7.23;;;3.80;;
51866;SDS011;52862;52.504;13.480;2022-07-01T13:57:25;5.90;;;3.05;;
51866;SDS011;52862;52.504;13.480;2022-07-01T13:59:52;5.63;;;3.33;;
51866;SDS011;52862;52.504;13.480;2022-07-01T14:02:19;4.87;;;3.67;;
51866;SDS011;52862;52.504;13.480;2022-07-01T14:04:46;3.83;;;3.40;;
51866;SDS011;52862;52.504;13.480;2022-07-01T14:07:13;6.57;;;3.33;;
51866;SDS011;52862;52.504;13.480;2022-07-01T14:09:41;5.40;;;3.10;;
51866;SDS011;52862;52.504;13.480;2022-07-01T14:12:09;5.40;;;2.87;;
51866;SDS011;52862;52.504;13.480;2022-07-01T14:14:41;5.90;;;3.08;;
51866;SDS011;52862;52.504;13.480;2022-07-01T14:17:08;7.47;;;2.90;;
51866;SDS011;52862;52.504;13.480;2022-07-01T14:19:35;3.80;;;2.80;;
51866;SDS011;52862;52.504;13.480;2022-07-01T14:22:02;5.57;;;3.10;;
51866;SDS011;52862;52.504;13.480;2022-07-01T14:24:30;4.17;;;3.03;;
51866;SDS011;52862;52.504;13.480;2022-07-01T14:26:57;3.43;;;2.80;;
51866;SDS011;52862;52.504;13.480;2022-07-01T14:29:24;6.10;;;3.30;;
51866;SDS011;52862;52.504;13.480;2022-07-01T14:31:50;6.90;;;2.97;;